| Date | Time | Temp. (oF) | Dew Point (oF) | Rel. Hum. (%) | Press. (in.) | Wind Dir. | Wind Speed (mph) | Hourly Rainfall (in.) |
|
|---|---|---|---|---|---|---|---|---|---|
| 1 | 05/31 | 00:00 | 65 | 61 | 90 | 29.75 | SSW | 0 | 0.00 |
| 2 | 05/30 | 23:00 | 68 | 63 | 86 | 29.76 | WSW | 0 | 0.00 |
| 3 | 05/30 | 22:00 | 70 | 62 | 76 | 29.76 | ENE | 0 | 0.00 |
| 4 | 05/30 | 21:00 | 73 | 62 | 69 | 29.74 | S | 0 | 0.00 |
| 5 | 05/30 | 20:00 | 76 | 62 | 63 | 29.74 | SSW | 2 | 0.00 |
| 6 | 05/30 | 19:00 | 77 | 61 | 59 | 29.73 | S | 4 | 0.00 |
| 7 | 05/30 | 18:00 | 78 | 60 | 55 | 29.73 | SSW | 4 | 0.00 |
| 8 | 05/30 | 17:00 | 79 | 62 | 57 | 29.72 | S | 5 | 0.00 |
| 9 | 05/30 | 16:00 | 81 | 61 | 52 | 29.73 | SSE | 13 | 0.00 |
| 10 | 05/30 | 15:00 | 81 | 59 | 48 | 29.75 | SSE | 6 | 0.00 |
| 11 | 05/30 | 14:00 | 81 | 62 | 54 | 29.78 | SSW | 3 | 0.00 |
| 12 | 05/30 | 13:00 | 79 | 64 | 61 | 29.80 | SE | 3 | 0.00 |
| 13 | 05/30 | 12:00 | 75 | 62 | 66 | 29.83 | SSW | 0 | 0.00 |
| 14 | 05/30 | 11:00 | 74 | 66 | 78 | 29.83 | E | 1 | 0.00 |
| 15 | 05/30 | 10:00 | 71 | 64 | 81 | 29.84 | SW | 3 | 0.00 |
| 16 | 05/30 | 09:00 | 68 | 64 | 90 | 29.83 | SSW | 1 | 0.00 |
| 17 | 05/30 | 08:00 | 66 | 63 | 93 | 29.83 | WSW | 0 | 0.00 |
| 18 | 05/30 | 07:00 | 65 | 63 | 94 | 29.82 | SSW | 1 | 0.00 |
| 19 | 05/30 | 06:00 | 66 | 65 | 98 | 29.79 | SSE | 0 | 0.00 |
| 20 | 05/30 | 05:00 | 67 | 66 | 97 | 29.79 | NNE | 1 | 0.00 |
| 21 | 05/30 | 04:00 | 67 | 66 | 98 | 29.81 | SSW | 1 | 0.00 |
| 22 | 05/30 | 03:00 | 68 | 67 | 99 | 29.81 | NE | 1 | 0.00 |
| 23 | 05/30 | 02:00 | 68 | 67 | 99 | 29.82 | SW | 0 | 0.00 |
| 24 | 05/30 | 01:00 | 68 | 67 | 99 | 29.82 | N | 0 | 0.00 |